createdAt,value
2022-12-03T00:00:37.116Z,0.00
2022-12-03T00:03:05.519Z,-0.10
2022-12-03T00:05:33.759Z,-0.10
2022-12-03T00:08:01.798Z,0.00
2022-12-03T00:10:29.924Z,0.00
2022-12-03T00:12:57.810Z,0.00
2022-12-03T00:15:27.635Z,0.00
2022-12-03T00:17:55.756Z,0.10
2022-12-03T00:20:25.304Z,0.20
2022-12-03T00:22:53.381Z,0.00
2022-12-03T00:25:21.370Z,0.00
2022-12-03T00:27:50.475Z,0.00
2022-12-03T00:30:18.587Z,0.00
2022-12-03T00:32:47.925Z,-0.10
2022-12-03T00:35:16.115Z,-0.10
2022-12-03T00:37:44.070Z,-0.20
2022-12-03T00:40:13.573Z,-0.20
2022-12-03T00:42:41.547Z,-0.20
2022-12-03T00:45:10.191Z,-0.20
2022-12-03T00:47:38.143Z,-0.20
2022-12-03T00:50:08.791Z,-0.20
2022-12-03T00:52:37.081Z,-0.30
2022-12-03T00:55:05.788Z,-0.30
2022-12-03T00:57:34.031Z,-0.30
2022-12-03T01:00:02.015Z,-0.20
2022-12-03T01:02:29.991Z,-0.20
2022-12-03T01:04:58.380Z,-0.30
2022-12-03T01:07:27.892Z,-0.20
2022-12-03T01:09:55.892Z,-0.20
2022-12-03T01:12:23.889Z,-0.20
2022-12-03T01:14:52.214Z,-0.40
2022-12-03T01:17:20.773Z,-0.40
2022-12-03T01:19:48.816Z,-0.40
2022-12-03T01:22:16.877Z,-0.40
2022-12-03T01:24:46.265Z,-0.40
2022-12-03T01:27:14.199Z,-0.30
2022-12-03T01:29:42.567Z,-0.40
2022-12-03T01:32:19.689Z,-0.40
2022-12-03T01:34:49.770Z,-0.30
2022-12-03T01:37:18.522Z,-0.30
2022-12-03T01:39:48.075Z,-0.30
2022-12-03T01:42:19.042Z,-0.40
2022-12-03T01:44:47.733Z,-0.40
2022-12-03T01:47:18.768Z,-0.50
2022-12-03T01:49:51.419Z,-0.50
2022-12-03T01:52:21.672Z,-0.50
2022-12-03T01:54:54.761Z,-0.50
2022-12-03T01:57:27.310Z,-0.50
2022-12-03T01:59:58.776Z,-0.50
2022-12-03T02:02:29.661Z,-0.60
2022-12-03T02:04:57.926Z,-0.60
2022-12-03T02:07:28.364Z,-0.60
2022-12-03T02:10:00.163Z,-0.70
2022-12-03T02:12:33.703Z,-0.60
2022-12-03T02:15:02.152Z,-0.70
2022-12-03T02:17:30.436Z,-0.70
2022-12-03T02:19:59.574Z,-0.70
2022-12-03T02:22:39.177Z,-0.70
2022-12-03T02:25:12.653Z,-0.70
2022-12-03T02:27:41.040Z,-0.70
2022-12-03T02:30:10.824Z,-0.70
2022-12-03T02:32:39.210Z,-0.70
2022-12-03T02:35:07.937Z,-0.70
2022-12-03T02:37:37.104Z,-0.70
2022-12-03T02:40:08.487Z,-0.70
2022-12-03T02:42:36.931Z,-0.70
2022-12-03T02:45:11.084Z,-0.80
2022-12-03T02:47:42.393Z,-0.70
2022-12-03T02:50:12.489Z,-0.70
2022-12-03T02:52:41.794Z,-0.80
2022-12-03T02:55:10.370Z,-0.70
2022-12-03T02:57:41.211Z,-0.70
2022-12-03T03:00:11.418Z,-0.70
2022-12-03T03:02:41.391Z,-0.60
2022-12-03T03:05:12.155Z,-0.60
2022-12-03T03:07:41.526Z,-0.60
2022-12-03T03:10:13.338Z,-0.60
2022-12-03T03:12:42.899Z,-0.50
2022-12-03T03:15:12.567Z,-0.60
2022-12-03T03:17:41.443Z,-0.60
2022-12-03T03:20:12.100Z,-0.60
2022-12-03T03:22:41.571Z,-0.50
2022-12-03T03:25:13.396Z,-0.60
2022-12-03T03:27:43.709Z,-0.60
2022-12-03T03:30:12.886Z,-0.70
2022-12-03T03:32:42.552Z,-0.70
2022-12-03T03:35:11.795Z,-0.60
2022-12-03T03:37:40.164Z,-0.60
2022-12-03T03:40:09.788Z,-0.50
2022-12-03T03:42:39.097Z,-0.50
2022-12-03T03:45:10.330Z,-0.50
2022-12-03T03:47:38.720Z,-0.50
2022-12-03T03:50:08.843Z,-0.50
2022-12-03T03:52:38.609Z,-0.50
2022-12-03T03:55:07.697Z,-0.50
2022-12-03T03:57:35.713Z,-0.50
2022-12-03T04:00:04.825Z,-0.50
2022-12-03T04:02:35.006Z,-0.60
2022-12-03T04:05:04.048Z,-0.60
2022-12-03T04:07:32.100Z,-0.50
2022-12-03T04:10:00.138Z,-0.50
2022-12-03T04:12:50.885Z,-0.50
2022-12-03T04:15:19.592Z,-0.50
2022-12-03T04:18:09.639Z,-0.40
2022-12-03T04:20:37.782Z,-0.50
2022-12-03T04:23:05.401Z,-0.50
2022-12-03T04:25:51.446Z,-0.40
2022-12-03T04:28:36.922Z,-0.40
2022-12-03T04:31:25.690Z,-0.40
2022-12-03T04:34:23.797Z,-0.30
2022-12-03T04:36:52.017Z,-0.30
2022-12-03T04:39:20.063Z,-0.20
2022-12-03T04:41:48.150Z,-0.20
2022-12-03T04:44:33.445Z,-0.30
2022-12-03T04:47:02.070Z,-0.20
2022-12-03T04:49:31.996Z,-0.20
2022-12-03T04:52:00.005Z,-0.20
2022-12-03T04:54:28.491Z,-0.20
2022-12-03T04:56:56.523Z,-0.20
2022-12-03T04:59:24.761Z,-0.20
2022-12-03T05:01:52.780Z,-0.20
2022-12-03T05:04:39.404Z,-0.10
2022-12-03T05:07:07.382Z,-0.10
2022-12-03T05:09:35.968Z,-0.10
2022-12-03T05:12:04.043Z,-0.10
2022-12-03T05:14:32.111Z,-0.10
2022-12-03T05:17:00.141Z,-0.10
2022-12-03T05:19:42.605Z,0.00
2022-12-03T05:22:11.953Z,-0.10
2022-12-03T05:24:39.992Z,-0.10
2022-12-03T05:27:07.967Z,-0.10
2022-12-03T05:29:35.965Z,-0.10
2022-12-03T05:32:04.195Z,0.00
2022-12-03T05:34:32.173Z,0.00
2022-12-03T05:37:00.135Z,0.00
2022-12-03T05:39:29.493Z,0.00
2022-12-03T05:42:14.784Z,0.00
2022-12-03T05:44:42.806Z,0.00
2022-12-03T05:47:10.766Z,0.00
2022-12-03T05:49:38.788Z,0.00
2022-12-03T05:52:07.060Z,0.00
2022-12-03T05:54:36.816Z,-0.10
2022-12-03T05:57:05.099Z,0.00
2022-12-03T05:59:33.118Z,0.00
2022-12-03T06:02:01.195Z,-0.10
2022-12-03T06:04:29.418Z,-0.10
2022-12-03T06:06:58.048Z,-0.10
2022-12-03T06:09:26.023Z,0.00
2022-12-03T06:11:55.546Z,0.00
2022-12-03T06:14:24.450Z,0.00
2022-12-03T06:16:52.454Z,-0.10
2022-12-03T06:19:20.771Z,-0.10
2022-12-03T06:21:48.761Z,-0.10
2022-12-03T06:24:16.777Z,-0.10
2022-12-03T06:26:45.002Z,-0.10
2022-12-03T06:29:14.341Z,0.00
2022-12-03T06:31:42.790Z,-0.10
2022-12-03T06:34:10.853Z,-0.10
2022-12-03T06:36:38.861Z,-0.10
2022-12-03T06:39:06.982Z,-0.10
2022-12-03T06:41:34.931Z,0.00
2022-12-03T06:44:03.098Z,-0.10
2022-12-03T06:46:32.539Z,-0.10
2022-12-03T06:49:00.631Z,-0.10
2022-12-03T06:51:28.926Z,0.00
2022-12-03T06:53:56.976Z,-0.10
2022-12-03T06:56:31.096Z,-0.20
2022-12-03T06:59:02.557Z,-0.20
2022-12-03T07:01:32.101Z,-0.10
2022-12-03T07:04:00.108Z,0.00
2022-12-03T07:06:31.309Z,-0.10
2022-12-03T07:08:59.349Z,-0.20
2022-12-03T07:11:32.982Z,-0.20
2022-12-03T07:14:05.598Z,-0.20
2022-12-03T07:16:39.551Z,-0.20
2022-12-03T07:19:08.239Z,-0.10
2022-12-03T07:21:36.303Z,-0.10
2022-12-03T07:24:04.552Z,-0.10
2022-12-03T07:26:32.649Z,0.00
2022-12-03T07:29:01.480Z,0.00
2022-12-03T07:31:29.503Z,-0.10
2022-12-03T07:33:58.866Z,0.00
2022-12-03T07:36:26.884Z,0.00
2022-12-03T07:38:54.887Z,0.00
2022-12-03T07:41:23.222Z,0.00
2022-12-03T07:43:51.341Z,0.00
2022-12-03T07:46:19.426Z,0.00
2022-12-03T07:48:47.514Z,0.00
2022-12-03T07:51:16.943Z,0.00
2022-12-03T07:53:45.123Z,0.00
2022-12-03T07:56:13.171Z,0.00
2022-12-03T07:58:41.155Z,0.00
2022-12-03T08:01:10.331Z,0.00
2022-12-03T08:03:38.541Z,0.00
2022-12-03T08:06:06.944Z,0.90
2022-12-03T08:08:36.427Z,1.80
2022-12-03T08:11:05.177Z,1.10
2022-12-03T08:13:35.785Z,0.80
2022-12-03T08:16:16.962Z,0.40
2022-12-03T08:18:45.662Z,0.30
2022-12-03T08:21:16.060Z,0.20
2022-12-03T08:23:45.922Z,0.20
2022-12-03T08:26:21.266Z,0.20
2022-12-03T08:28:49.442Z,0.10
2022-12-03T08:31:20.586Z,0.00
2022-12-03T08:33:49.882Z,0.10
2022-12-03T08:36:22.955Z,0.10
2022-12-03T08:38:55.704Z,0.00
2022-12-03T08:41:37.843Z,0.00
2022-12-03T08:44:17.361Z,0.10
2022-12-03T08:46:46.322Z,0.10
2022-12-03T08:49:15.742Z,0.00
2022-12-03T08:51:44.292Z,0.10
2022-12-03T08:54:20.533Z,0.10
2022-12-03T08:56:48.707Z,0.10
2022-12-03T08:59:29.390Z,0.00
2022-12-03T09:01:58.012Z,0.10
2022-12-03T09:04:30.127Z,0.10
2022-12-03T09:06:59.241Z,0.10
2022-12-03T09:09:28.764Z,0.20
2022-12-03T09:11:57.057Z,0.20
2022-12-03T09:14:25.247Z,0.20
2022-12-03T09:16:55.542Z,0.20
2022-12-03T09:19:25.326Z,0.20
2022-12-03T09:21:53.731Z,0.20
2022-12-03T09:24:22.192Z,0.20
2022-12-03T09:26:51.587Z,0.10
2022-12-03T09:29:19.643Z,0.30
2022-12-03T09:31:48.091Z,0.30
2022-12-03T09:34:16.315Z,0.40
2022-12-03T09:36:44.503Z,0.30
2022-12-03T09:39:12.573Z,0.30
2022-12-03T09:41:40.955Z,0.30
2022-12-03T09:44:17.470Z,0.20
2022-12-03T09:46:47.600Z,0.30
2022-12-03T09:49:19.708Z,0.30
2022-12-03T09:51:48.072Z,0.30
2022-12-03T09:54:24.489Z,0.40
2022-12-03T09:56:53.541Z,0.30
2022-12-03T09:59:24.606Z,0.30
2022-12-03T10:01:53.818Z,0.40
2022-12-03T10:04:22.480Z,0.40
2022-12-03T10:06:51.546Z,0.60
2022-12-03T10:09:25.403Z,0.60
2022-12-03T10:11:53.519Z,0.60
2022-12-03T10:14:23.006Z,0.50
2022-12-03T10:16:51.915Z,0.60
2022-12-03T10:19:24.104Z,0.70
2022-12-03T10:21:52.174Z,0.70
2022-12-03T10:24:26.584Z,0.70
2022-12-03T10:26:58.211Z,0.80
2022-12-03T10:29:33.686Z,0.60
2022-12-03T10:32:04.644Z,0.60
2022-12-03T10:34:34.654Z,0.60
2022-12-03T10:37:12.662Z,0.40
2022-12-03T10:40:01.808Z,0.50
2022-12-03T10:42:31.498Z,0.50
2022-12-03T10:45:15.500Z,0.60
2022-12-03T10:47:44.336Z,0.50
2022-12-03T10:50:19.445Z,0.40
2022-12-03T10:52:48.086Z,0.50
2022-12-03T10:55:17.056Z,0.50
2022-12-03T10:57:46.248Z,0.50
2022-12-03T11:00:19.585Z,0.50
2022-12-03T11:02:54.900Z,0.60
2022-12-03T11:05:28.197Z,0.60
2022-12-03T11:08:00.415Z,0.60
2022-12-03T11:10:28.602Z,0.60
2022-12-03T11:13:31.040Z,0.70
2022-12-03T11:16:01.135Z,0.70
2022-12-03T11:19:01.436Z,0.70
2022-12-03T11:21:30.039Z,0.70
2022-12-03T11:24:19.995Z,0.70
2022-12-03T11:27:08.344Z,0.70
2022-12-03T11:29:57.285Z,0.80
2022-12-03T11:33:09.558Z,0.90
2022-12-03T11:36:15.562Z,0.80
2022-12-03T11:38:53.937Z,0.80
2022-12-03T11:41:25.734Z,0.70
2022-12-03T11:44:29.560Z,0.70
2022-12-03T11:47:00.019Z,0.70
2022-12-03T11:49:40.527Z,0.70
2022-12-03T11:52:29.351Z,0.70
2022-12-03T11:55:14.725Z,0.70
2022-12-03T11:57:44.302Z,0.70
2022-12-03T12:00:21.010Z,0.60
2022-12-03T12:02:49.698Z,0.60
2022-12-03T12:05:27.122Z,0.50
2022-12-03T12:07:57.444Z,0.40
2022-12-03T12:10:46.074Z,0.40
2022-12-03T12:13:45.026Z,0.40
2022-12-03T12:16:13.200Z,0.40
2022-12-03T12:18:42.950Z,0.40
2022-12-03T12:21:44.176Z,0.50
2022-12-03T12:24:48.207Z,0.50
2022-12-03T12:27:18.003Z,0.40
2022-12-03T12:29:51.691Z,0.40
2022-12-03T12:32:23.598Z,0.40
2022-12-03T12:34:55.557Z,0.40
2022-12-03T12:37:30.574Z,0.30
2022-12-03T12:40:00.024Z,0.30
2022-12-03T12:42:34.205Z,0.30
2022-12-03T12:45:14.158Z,0.30
2022-12-03T12:47:48.607Z,0.30
2022-12-03T12:50:17.798Z,0.30
2022-12-03T12:52:52.425Z,0.10
2022-12-03T12:55:24.164Z,0.10
2022-12-03T12:57:52.698Z,0.00
2022-12-03T13:00:24.189Z,0.00
2022-12-03T13:02:56.629Z,0.00
2022-12-03T13:05:28.013Z,0.10
2022-12-03T13:07:57.102Z,0.00
2022-12-03T13:10:36.786Z,0.00
2022-12-03T13:13:21.632Z,0.10
2022-12-03T13:15:53.077Z,0.10
2022-12-03T13:18:40.835Z,0.10
2022-12-03T13:21:23.831Z,0.20
2022-12-03T13:23:53.895Z,0.20
2022-12-03T13:26:36.553Z,0.20
2022-12-03T13:29:12.139Z,0.20
2022-12-03T13:31:43.704Z,0.20
2022-12-03T13:34:17.412Z,0.20
2022-12-03T13:36:52.003Z,0.20
2022-12-03T13:39:28.834Z,0.10
2022-12-03T13:42:16.355Z,0.20
2022-12-03T13:44:46.674Z,0.00
2022-12-03T13:47:19.859Z,0.00
2022-12-03T13:49:53.550Z,0.00
2022-12-03T13:52:24.860Z,0.00
2022-12-03T13:54:55.257Z,-0.10
2022-12-03T13:57:25.177Z,-0.20
2022-12-03T13:59:53.630Z,-0.30
2022-12-03T14:02:21.950Z,-0.30
2022-12-03T14:04:51.351Z,-0.20
2022-12-03T14:07:21.126Z,0.70
2022-12-03T14:09:49.301Z,0.50
2022-12-03T14:12:28.961Z,0.30
2022-12-03T14:14:58.564Z,0.20
2022-12-03T14:17:27.157Z,0.00
2022-12-03T14:19:56.309Z,-0.10
2022-12-03T14:22:25.486Z,-0.10
2022-12-03T14:24:54.777Z,-0.30
2022-12-03T14:27:24.613Z,-0.40
2022-12-03T14:29:53.118Z,-0.40
2022-12-03T14:32:23.291Z,-0.40
2022-12-03T14:34:51.404Z,-0.40
2022-12-03T14:37:19.715Z,-0.30
2022-12-03T14:39:47.844Z,-0.30
2022-12-03T14:42:16.899Z,-0.30
2022-12-03T14:44:49.366Z,-0.40
2022-12-03T14:47:19.177Z,-0.40
2022-12-03T14:49:48.634Z,-0.40
2022-12-03T14:52:17.007Z,-0.40
2022-12-03T14:54:46.236Z,-0.40
2022-12-03T14:57:16.061Z,-0.40
2022-12-03T14:59:45.052Z,-0.30
2022-12-03T15:02:13.853Z,-0.30
2022-12-03T15:04:42.660Z,-0.40
2022-12-03T15:07:12.163Z,-0.40
2022-12-03T15:09:40.623Z,-0.30
2022-12-03T15:12:09.109Z,-0.30
2022-12-03T15:14:37.291Z,-0.30
2022-12-03T15:17:05.436Z,-0.20
2022-12-03T15:19:33.601Z,-0.20
2022-12-03T15:22:02.315Z,-0.20
2022-12-03T15:24:31.807Z,-0.10
2022-12-03T15:27:00.018Z,-0.10
2022-12-03T15:29:28.099Z,-0.20
2022-12-03T15:31:59.350Z,-0.20
2022-12-03T15:34:28.015Z,-0.20
2022-12-03T15:36:56.131Z,-0.20
2022-12-03T15:39:24.259Z,-0.20
2022-12-03T15:41:53.810Z,-0.20
2022-12-03T15:44:21.899Z,-0.10
2022-12-03T15:46:50.174Z,-0.20
2022-12-03T15:49:18.263Z,-0.20
2022-12-03T15:51:46.307Z,-0.20
2022-12-03T15:54:14.346Z,-0.30
2022-12-03T15:56:42.444Z,-0.30
2022-12-03T15:59:13.513Z,-0.20
2022-12-03T16:01:41.715Z,-0.20
2022-12-03T16:04:09.878Z,-0.30
2022-12-03T16:06:38.061Z,-0.40
2022-12-03T16:09:06.117Z,-0.40
2022-12-03T16:11:34.824Z,-0.30
2022-12-03T16:14:02.959Z,-0.30
2022-12-03T16:16:32.487Z,-0.30
2022-12-03T16:19:00.671Z,-0.30
2022-12-03T16:21:28.982Z,-0.20
2022-12-03T16:23:57.584Z,-0.20
2022-12-03T16:26:26.605Z,-0.20
2022-12-03T16:28:54.789Z,-0.20
2022-12-03T16:31:23.172Z,-0.30
2022-12-03T16:33:52.862Z,-0.30
2022-12-03T16:36:21.139Z,-0.30
2022-12-03T16:38:49.104Z,-0.30
2022-12-03T16:41:17.124Z,-0.30
2022-12-03T16:43:47.452Z,-0.20
2022-12-03T16:46:26.445Z,-0.30
2022-12-03T16:48:57.977Z,-0.20
2022-12-03T16:51:27.762Z,-0.20
2022-12-03T16:53:56.096Z,-0.20
2022-12-03T16:56:24.165Z,-0.20
2022-12-03T16:58:52.360Z,-0.20
2022-12-03T17:01:20.500Z,-0.20
2022-12-03T17:03:48.650Z,-0.20
2022-12-03T17:06:18.042Z,-0.20
2022-12-03T17:08:49.657Z,-0.20
2022-12-03T17:11:19.197Z,-0.20
2022-12-03T17:13:47.783Z,-0.20
2022-12-03T17:16:15.986Z,-0.20
2022-12-03T17:18:44.693Z,-0.20
2022-12-03T17:21:12.865Z,-0.20
2022-12-03T17:23:42.773Z,-0.30
2022-12-03T17:26:10.834Z,-0.30
2022-12-03T17:28:38.974Z,-0.20
2022-12-03T17:31:07.260Z,-0.20
2022-12-03T17:33:35.735Z,-0.20
2022-12-03T17:36:04.345Z,-0.20
2022-12-03T17:38:38.812Z,-0.20
2022-12-03T17:41:08.854Z,-0.30
2022-12-03T17:43:36.900Z,-0.30
2022-12-03T17:46:06.906Z,-0.20
2022-12-03T17:48:34.960Z,-0.20
2022-12-03T17:51:02.980Z,-0.20
2022-12-03T17:53:30.977Z,-0.30
2022-12-03T17:55:58.992Z,-0.20
2022-12-03T17:58:29.045Z,-0.20
2022-12-03T18:01:02.029Z,-0.20
2022-12-03T18:03:31.030Z,-0.20
2022-12-03T18:05:59.058Z,-0.20
2022-12-03T18:08:27.549Z,-0.20
2022-12-03T18:10:58.683Z,-0.30
2022-12-03T18:13:28.244Z,-0.20
2022-12-03T18:15:56.469Z,-0.30
2022-12-03T18:18:24.596Z,-0.20
2022-12-03T18:20:54.109Z,-0.20
2022-12-03T18:23:22.472Z,-0.20
2022-12-03T18:25:50.584Z,-0.20
2022-12-03T18:28:18.832Z,-0.10
2022-12-03T18:30:52.416Z,-0.20
2022-12-03T18:33:23.547Z,-0.30
2022-12-03T18:35:54.076Z,-0.30
2022-12-03T18:38:23.756Z,-0.30
2022-12-03T18:40:54.570Z,-0.30
2022-12-03T18:43:22.628Z,-0.30
2022-12-03T18:45:53.164Z,-0.30
2022-12-03T18:48:21.461Z,-0.30
2022-12-03T18:50:49.623Z,-0.20
2022-12-03T18:53:20.444Z,-0.20
2022-12-03T18:55:48.947Z,-0.20
2022-12-03T18:58:17.773Z,-0.20
2022-12-03T19:00:45.859Z,-0.20
2022-12-03T19:03:15.384Z,-0.20
2022-12-03T19:05:43.520Z,-0.10
2022-12-03T19:08:14.955Z,-0.10
2022-12-03T19:10:48.526Z,-0.10
2022-12-03T19:13:16.543Z,0.00
2022-12-03T19:15:46.328Z,-0.10
2022-12-03T19:18:15.700Z,-0.20
2022-12-03T19:20:43.798Z,-0.20
2022-12-03T19:23:12.362Z,-0.10
2022-12-03T19:25:40.568Z,0.00
2022-12-03T19:28:08.669Z,0.00
2022-12-03T19:30:38.269Z,0.00
2022-12-03T19:33:06.313Z,0.00
2022-12-03T19:35:40.506Z,0.00
2022-12-03T19:38:08.621Z,0.00
2022-12-03T19:40:36.682Z,0.00
2022-12-03T19:43:04.744Z,0.00
2022-12-03T19:45:32.770Z,0.00
2022-12-03T19:48:02.660Z,0.00
2022-12-03T19:50:30.684Z,0.00
2022-12-03T19:53:00.141Z,0.00
2022-12-03T19:55:28.146Z,-0.10
2022-12-03T19:57:56.175Z,0.00
2022-12-03T20:00:24.778Z,-0.10
2022-12-03T20:02:52.920Z,0.00
2022-12-03T20:05:21.002Z,0.00
2022-12-03T20:07:49.057Z,0.10
2022-12-03T20:10:19.339Z,0.00
2022-12-03T20:12:50.878Z,0.00
2022-12-03T20:15:18.976Z,0.00
2022-12-03T20:17:47.184Z,0.00
2022-12-03T20:20:15.351Z,0.00
2022-12-03T20:22:43.660Z,0.00
2022-12-03T20:25:12.446Z,-0.10
2022-12-03T20:27:41.914Z,0.00
2022-12-03T20:30:11.374Z,-0.10
2022-12-03T20:32:45.072Z,-0.10
2022-12-03T20:35:14.067Z,-0.20
2022-12-03T20:37:42.107Z,-0.20
2022-12-03T20:40:11.646Z,-0.20
2022-12-03T20:42:41.166Z,-0.20
2022-12-03T20:45:10.357Z,-0.10
2022-12-03T20:47:39.624Z,-0.10
2022-12-03T20:50:08.721Z,-0.10
2022-12-03T20:52:36.943Z,-0.10
2022-12-03T20:55:05.352Z,-0.10
2022-12-03T20:57:33.393Z,-0.10
2022-12-03T21:00:03.742Z,-0.10
2022-12-03T21:02:31.869Z,-0.10
2022-12-03T21:05:00.101Z,0.00
2022-12-03T21:07:28.373Z,0.00
2022-12-03T21:09:56.800Z,0.00
2022-12-03T21:12:25.485Z,0.00
2022-12-03T21:14:53.574Z,0.00
2022-12-03T21:17:23.627Z,0.00
2022-12-03T21:19:51.961Z,0.00
2022-12-03T21:22:20.210Z,0.00
2022-12-03T21:24:48.801Z,0.00
2022-12-03T21:27:21.621Z,0.10
2022-12-03T21:29:50.156Z,0.10
2022-12-03T21:32:18.329Z,0.10
2022-12-03T21:34:47.756Z,0.10
2022-12-03T21:37:16.824Z,0.10
2022-12-03T21:39:44.817Z,0.10
2022-12-03T21:42:18.714Z,0.10
2022-12-03T21:45:00.875Z,0.10
2022-12-03T21:47:35.144Z,0.10
2022-12-03T21:50:08.637Z,0.10
2022-12-03T21:52:37.026Z,0.10
2022-12-03T21:55:05.331Z,0.10
2022-12-03T21:57:35.836Z,0.20
2022-12-03T22:00:05.077Z,0.20
2022-12-03T22:02:33.143Z,0.10
2022-12-03T22:05:01.252Z,0.10
2022-12-03T22:07:33.091Z,0.10
2022-12-03T22:10:02.078Z,0.10
2022-12-03T22:12:30.147Z,0.10
2022-12-03T22:14:58.174Z,0.10
2022-12-03T22:17:26.687Z,0.10
2022-12-03T22:19:54.967Z,0.10
2022-12-03T22:22:23.508Z,0.10
2022-12-03T22:24:52.914Z,0.10
2022-12-03T22:27:20.915Z,0.10
2022-12-03T22:29:48.988Z,-0.10
2022-12-03T22:32:17.129Z,0.00
2022-12-03T22:34:45.517Z,0.00
2022-12-03T22:37:13.608Z,0.00
2022-12-03T22:39:41.657Z,0.10
2022-12-03T22:42:11.096Z,0.00
2022-12-03T22:44:39.078Z,0.00
2022-12-03T22:47:07.984Z,0.00
2022-12-03T22:49:35.996Z,0.00
2022-12-03T22:52:04.038Z,0.00
2022-12-03T22:54:32.099Z,0.00
2022-12-03T22:57:00.090Z,0.10
2022-12-03T22:59:29.946Z,0.00
2022-12-03T23:01:57.999Z,0.10
2022-12-03T23:04:26.035Z,0.00
2022-12-03T23:06:54.052Z,0.00
2022-12-03T23:09:22.113Z,0.00
2022-12-03T23:11:50.354Z,-0.10
2022-12-03T23:14:18.497Z,0.00
2022-12-03T23:16:47.916Z,0.00
2022-12-03T23:19:16.478Z,0.00
2022-12-03T23:21:44.567Z,0.00
2022-12-03T23:24:12.823Z,0.10
2022-12-03T23:26:40.849Z,0.10
2022-12-03T23:29:09.034Z,0.00
2022-12-03T23:31:37.267Z,0.00
2022-12-03T23:34:07.246Z,0.00
2022-12-03T23:36:35.972Z,0.00
2022-12-03T23:39:04.058Z,0.00
2022-12-03T23:41:32.075Z,0.10
2022-12-03T23:44:00.255Z,0.10
2022-12-03T23:46:28.974Z,0.10
2022-12-03T23:48:59.672Z,0.10
2022-12-03T23:51:29.155Z,0.10
2022-12-03T23:53:57.878Z,0.10
2022-12-03T23:56:27.947Z,0.10
2022-12-03T23:58:57.206Z,0.10
